Moron de la Frontera, Spain
Current Conditions -  °F | °C
As of 4:00 PM on Thursday 23 Oct 2014 (Local Time) from LEMO Reporting Station
Clear Clear  
Wind Chill: 86°   Ceiling: Unl
Heat Index: 86°   Visibility: 6mi
Dew Point: 46°   Wind: 12mph
Humidity: 25%   Direction: 50°NE
Pressure: 30.06"   Gusts: NA
Location:  37.12°N, 5.45°W
Report Text: LEMO 231400Z 05010KT CAVOK 30/08 Q1018 NOSIG
Loading
Personal Weather Stations






























Interactive Weather Map
Tropical Storm Tracking
New forecast layout! Learn more

10-Day Weather Forecast

Advertisements
Track Severe Weather on mobile